Rio Medina, Texas
Current Conditions -  °F | °C
As of 2:55 PM on Tuesday 21 Oct 2014 (Local Time) from KCVB Reporting Station
Clear Clear  
Wind Chill: 84°   Ceiling: Unl
Heat Index: 84°   Visibility: 10mi
Dew Point: 51°   Wind: 10mph
Humidity: 32%   Direction: 110°ESE
Pressure: 30"   Gusts: 16mph
Location:  29.44°N, 98.88°W
Report Text: KCVB 211955Z AUTO 11009G14KT 10SM CLR 29/11 A3000 RMK AO2 T02900107
Loading
Personal Weather Stations






























Interactive Weather Map
Tropical Storm Tracking
New forecast layout! Learn more

10-Day Weather Forecast

Advertisements
Track Severe Weather on mobile